createdAt,value
2018-07-01T00:01:42.982Z,95328.00
2018-07-01T00:04:12.016Z,95331.00
2018-07-01T00:06:41.003Z,95330.00
2018-07-01T00:09:09.995Z,95326.00
2018-07-01T00:11:39.000Z,95335.00
2018-07-01T00:14:08.006Z,95332.00
2018-07-01T00:16:37.018Z,95329.00
2018-07-01T00:19:06.378Z,95333.00
2018-07-01T00:21:35.355Z,95333.00
2018-07-01T00:24:04.353Z,95328.00
2018-07-01T00:26:33.338Z,95334.00
2018-07-01T00:29:02.326Z,95337.00
2018-07-01T00:31:31.305Z,95346.00
2018-07-01T00:34:00.318Z,95339.00
2018-07-01T00:36:29.322Z,95337.00
2018-07-01T00:38:58.315Z,95343.00
2018-07-01T00:41:27.290Z,95339.00
2018-07-01T00:43:56.294Z,95339.00
2018-07-01T00:46:25.269Z,95333.00
2018-07-01T00:48:54.261Z,95336.00
2018-07-01T00:51:23.254Z,95326.00
2018-07-01T00:53:52.230Z,95338.00
2018-07-01T00:56:21.267Z,95334.00
2018-07-01T00:58:50.369Z,95337.00
2018-07-01T01:01:19.342Z,95337.00
2018-07-01T01:03:48.346Z,95342.00
2018-07-01T01:06:17.346Z,95332.00
2018-07-01T01:08:46.334Z,95333.00
2018-07-01T01:11:15.321Z,95338.00
2018-07-01T01:13:44.341Z,95337.00
2018-07-01T01:16:13.438Z,95342.00
2018-07-01T01:18:42.418Z,95351.00
2018-07-01T01:21:11.503Z,95347.00
2018-07-01T01:23:40.478Z,95346.00
2018-07-01T01:26:09.466Z,95349.00
2018-07-01T01:28:38.477Z,95344.00
2018-07-01T01:31:07.606Z,95344.00
2018-07-01T01:33:36.603Z,95342.00
2018-07-01T01:36:05.633Z,95341.00
2018-07-01T01:38:36.522Z,95343.00
2018-07-01T01:41:14.099Z,95341.00
2018-07-01T01:43:53.288Z,95332.00
2018-07-01T01:48:28.541Z,95330.00
2018-07-01T01:51:02.965Z,95324.00
2018-07-01T01:53:50.357Z,95330.00
2018-07-01T01:56:27.854Z,95337.00
2018-07-01T01:59:02.406Z,95336.00
2018-07-01T02:03:37.487Z,95339.00
2018-07-01T02:06:13.201Z,95337.00
2018-07-01T02:08:46.967Z,95333.00
2018-07-01T02:11:15.967Z,95341.00
2018-07-01T02:13:48.018Z,95335.00
2018-07-01T02:16:22.761Z,95340.00
2018-07-01T02:18:51.741Z,95344.00
2018-07-01T02:21:20.738Z,95339.00
2018-07-01T02:23:52.466Z,95351.00
2018-07-01T02:26:21.454Z,95351.00
2018-07-01T02:28:50.437Z,95345.00
2018-07-01T02:31:19.430Z,95360.00
2018-07-01T02:33:48.402Z,95350.00
2018-07-01T02:36:17.447Z,95360.00
2018-07-01T02:38:46.530Z,95350.00
2018-07-01T02:41:15.645Z,95350.00
2018-07-01T02:43:44.686Z,95350.00
2018-07-01T02:46:13.776Z,95354.00
2018-07-01T02:48:42.766Z,95345.00
2018-07-01T02:51:11.746Z,95359.00
2018-07-01T02:53:40.734Z,95350.00
2018-07-01T02:56:09.715Z,95345.00
2018-07-01T02:58:38.722Z,95350.00
2018-07-01T03:01:07.899Z,95348.00
2018-07-01T03:03:36.901Z,95341.00
2018-07-01T03:06:05.965Z,95342.00
2018-07-01T03:08:35.062Z,95351.00
2018-07-01T03:11:04.055Z,95353.00
2018-07-01T03:13:33.158Z,95351.00
2018-07-01T03:16:02.138Z,95352.00
2018-07-01T03:18:31.229Z,95345.00
2018-07-01T03:21:00.233Z,95346.00
2018-07-01T03:23:29.198Z,95346.00
2018-07-01T03:25:58.178Z,95341.00
2018-07-01T03:28:27.161Z,95346.00
2018-07-01T03:30:56.147Z,95346.00
2018-07-01T03:33:25.137Z,95348.00
2018-07-01T03:35:54.125Z,95350.00
2018-07-01T03:38:23.137Z,95350.00
2018-07-01T03:40:52.150Z,95350.00
2018-07-01T03:43:21.166Z,95370.00
2018-07-01T03:45:50.156Z,95360.00
2018-07-01T03:48:19.133Z,95360.00
2018-07-01T03:50:48.122Z,95367.00
2018-07-01T03:53:17.106Z,95362.00
2018-07-01T03:55:46.083Z,95375.00
2018-07-01T03:58:15.078Z,95372.00
2018-07-01T04:00:44.067Z,95370.00
2018-07-01T04:03:13.055Z,95371.00
2018-07-01T04:05:42.052Z,95373.00
2018-07-01T04:08:11.044Z,95360.00
2018-07-01T04:10:40.028Z,95360.00
2018-07-01T04:13:09.024Z,95364.00
2018-07-01T04:15:38.021Z,95365.00
2018-07-01T04:18:07.154Z,95370.00
2018-07-01T04:20:36.274Z,95371.00
2018-07-01T04:23:05.306Z,95376.00
2018-07-01T04:25:34.271Z,95372.00
2018-07-01T04:28:03.283Z,95371.00
2018-07-01T04:30:32.249Z,95372.00
2018-07-01T04:33:01.278Z,95381.00
2018-07-01T04:35:30.258Z,95383.00
2018-07-01T04:37:59.255Z,95381.00
2018-07-01T04:40:28.107Z,95375.00
2018-07-01T04:42:57.110Z,95387.00
2018-07-01T04:45:26.101Z,95397.00
2018-07-01T04:47:55.078Z,95391.00
2018-07-01T04:50:24.069Z,95380.00
2018-07-01T04:52:53.511Z,95388.00
2018-07-01T04:55:22.671Z,95396.00
2018-07-01T04:57:51.522Z,95395.00
2018-07-01T05:00:20.554Z,95384.00
2018-07-01T05:02:49.545Z,95376.00
2018-07-01T05:05:18.543Z,95381.00
2018-07-01T05:07:47.533Z,95386.00
2018-07-01T05:10:16.517Z,95391.00
2018-07-01T05:12:45.517Z,95388.00
2018-07-01T05:15:14.501Z,95394.00
2018-07-01T05:17:43.478Z,95398.00
2018-07-01T05:20:12.473Z,95393.00
2018-07-01T05:22:41.465Z,95389.00
2018-07-01T05:25:10.454Z,95391.00
2018-07-01T05:27:39.473Z,95393.00
2018-07-01T05:30:08.457Z,95402.00
2018-07-01T05:32:37.462Z,95408.00
2018-07-01T05:35:06.504Z,95408.00
2018-07-01T05:37:35.488Z,95417.00
2018-07-01T05:40:04.746Z,95400.00
2018-07-01T05:42:33.750Z,95403.00
2018-07-01T05:45:02.898Z,95400.00
2018-07-01T05:47:31.870Z,95406.00
2018-07-01T05:50:01.066Z,95405.00
2018-07-01T05:52:30.642Z,95408.00
2018-07-01T05:54:59.641Z,95413.00
2018-07-01T05:57:28.642Z,95420.00
2018-07-01T05:59:57.641Z,95417.00
2018-07-01T06:02:26.698Z,95408.00
2018-07-01T06:04:55.673Z,95410.00
2018-07-01T06:07:24.684Z,95407.00
2018-07-01T06:09:53.710Z,95405.00
2018-07-01T06:12:22.802Z,95406.00
2018-07-01T06:14:51.794Z,95406.00
2018-07-01T06:17:20.786Z,95405.00
2018-07-01T06:19:49.770Z,95410.00
2018-07-01T06:22:18.746Z,95410.00
2018-07-01T06:24:47.950Z,95409.00
2018-07-01T06:27:16.931Z,95404.00
2018-07-01T06:29:46.236Z,95418.00
2018-07-01T06:32:15.331Z,95416.00
2018-07-01T06:34:44.367Z,95411.00
2018-07-01T06:37:13.391Z,95411.00
2018-07-01T06:39:42.384Z,95410.00
2018-07-01T06:42:11.364Z,95414.00
2018-07-01T06:44:40.374Z,95404.00
2018-07-01T06:47:09.374Z,95402.00
2018-07-01T06:49:38.425Z,95412.00
2018-07-01T06:52:07.437Z,95408.00
2018-07-01T06:54:36.514Z,95409.00
2018-07-01T06:57:05.680Z,95404.00
2018-07-01T06:59:34.794Z,95396.00
2018-07-01T07:02:03.806Z,95405.00
2018-07-01T07:04:32.870Z,95402.00
2018-07-01T07:07:01.862Z,95404.00
2018-07-01T07:09:30.859Z,95395.00
2018-07-01T07:11:59.863Z,95400.00
2018-07-01T07:14:28.873Z,95407.00
2018-07-01T07:16:57.869Z,95395.00
2018-07-01T07:19:26.881Z,95406.00
2018-07-01T07:21:55.878Z,95392.00
2018-07-01T07:24:24.898Z,95398.00
2018-07-01T07:26:53.978Z,95395.00
2018-07-01T07:29:23.002Z,95394.00
2018-07-01T07:31:52.100Z,95388.00
2018-07-01T07:34:21.045Z,95401.00
2018-07-01T07:36:50.039Z,95400.00
2018-07-01T07:39:19.009Z,95403.00
2018-07-01T07:41:48.016Z,95392.00
2018-07-01T07:44:16.997Z,95405.00
2018-07-01T07:46:45.994Z,95392.00
2018-07-01T07:49:14.986Z,95401.00
2018-07-01T07:51:43.990Z,95394.00
2018-07-01T07:54:13.494Z,95404.00
2018-07-01T07:56:42.273Z,95389.00
2018-07-01T07:59:11.289Z,95397.00
2018-07-01T08:01:40.269Z,95398.00
2018-07-01T08:04:09.266Z,95397.00
2018-07-01T08:06:38.145Z,95396.00
2018-07-01T08:09:09.217Z,95407.00
2018-07-01T08:11:38.218Z,95397.00
2018-07-01T08:14:09.552Z,95392.00
2018-07-01T08:16:38.708Z,95392.00
2018-07-01T08:19:07.711Z,95393.00
2018-07-01T08:21:36.720Z,95396.00
2018-07-01T08:24:05.870Z,95395.00
2018-07-01T08:26:34.892Z,95400.00
2018-07-01T08:29:04.199Z,95384.00
2018-07-01T08:31:33.090Z,95391.00
2018-07-01T08:34:02.156Z,95389.00
2018-07-01T08:36:31.304Z,95397.00
2018-07-01T08:39:00.302Z,95393.00
2018-07-01T08:41:35.639Z,95398.00
2018-07-01T08:44:04.658Z,95401.00
2018-07-01T08:46:33.712Z,95397.00
2018-07-01T08:49:02.698Z,95410.00
2018-07-01T08:51:31.689Z,95405.00
2018-07-01T08:54:00.706Z,95401.00
2018-07-01T08:56:29.717Z,95407.00
2018-07-01T08:58:58.714Z,95406.00
2018-07-01T09:01:27.734Z,95408.00
2018-07-01T09:03:56.853Z,95402.00
2018-07-01T09:06:25.852Z,95414.00
2018-07-01T09:08:54.864Z,95407.00
2018-07-01T09:11:23.816Z,95418.00
2018-07-01T09:13:52.805Z,95424.00
2018-07-01T09:16:21.798Z,95420.00
2018-07-01T09:18:50.769Z,95423.00
2018-07-01T09:21:19.774Z,95420.00
2018-07-01T09:23:48.854Z,95416.00
2018-07-01T09:26:17.914Z,95418.00
2018-07-01T09:28:47.229Z,95429.00
2018-07-01T09:31:16.231Z,95415.00
2018-07-01T09:33:45.217Z,95422.00
2018-07-01T09:36:14.242Z,95423.00
2018-07-01T09:38:43.233Z,95427.00
2018-07-01T09:41:12.205Z,95418.00
2018-07-01T09:43:41.202Z,95417.00
2018-07-01T09:46:10.172Z,95418.00
2018-07-01T09:48:39.177Z,95421.00
2018-07-01T09:51:08.178Z,95427.00
2018-07-01T09:53:37.170Z,95423.00
2018-07-01T09:56:06.182Z,95424.00
2018-07-01T09:58:35.185Z,95417.00
2018-07-01T10:01:04.124Z,95418.00
2018-07-01T10:03:33.088Z,95426.00
2018-07-01T10:06:02.098Z,95411.00
2018-07-01T10:08:31.102Z,95409.00
2018-07-01T10:11:00.222Z,95420.00
2018-07-01T10:13:29.336Z,95414.00
2018-07-01T10:15:58.326Z,95405.00
2018-07-01T10:18:27.346Z,95412.00
2018-07-01T10:20:56.350Z,95407.00
2018-07-01T10:23:25.384Z,95411.00
2018-07-01T10:25:54.641Z,95409.00
2018-07-01T10:28:23.667Z,95419.00
2018-07-01T10:30:52.710Z,95418.00
2018-07-01T10:33:21.762Z,95420.00
2018-07-01T10:35:51.502Z,95413.00
2018-07-01T10:38:20.926Z,95410.00
2018-07-01T10:40:49.914Z,95416.00
2018-07-01T10:43:18.761Z,95401.00
2018-07-01T10:45:48.112Z,95414.00
2018-07-01T10:48:18.010Z,95409.00
2018-07-01T10:50:47.050Z,95405.00
2018-07-01T10:53:16.098Z,95405.00
2018-07-01T10:55:45.198Z,95397.00
2018-07-01T10:58:14.285Z,95411.00
2018-07-01T11:00:44.228Z,95395.00
2018-07-01T11:03:16.102Z,95400.00
2018-07-01T11:05:45.143Z,95397.00
2018-07-01T11:08:15.509Z,95393.00
2018-07-01T11:10:44.514Z,95390.00
2018-07-01T11:13:13.506Z,95394.00
2018-07-01T11:15:42.779Z,95391.00
2018-07-01T11:18:11.774Z,95391.00
2018-07-01T11:20:40.529Z,95385.00
2018-07-01T11:23:09.528Z,95388.00
2018-07-01T11:25:38.602Z,95379.00
2018-07-01T11:28:07.626Z,95391.00
2018-07-01T11:30:36.623Z,95391.00
2018-07-01T11:33:05.678Z,95395.00
2018-07-01T11:35:34.685Z,95381.00
2018-07-01T11:38:03.708Z,95378.00
2018-07-01T11:40:32.681Z,95381.00
2018-07-01T11:43:01.670Z,95380.00
2018-07-01T11:45:30.691Z,95387.00
2018-07-01T11:47:59.754Z,95384.00
2018-07-01T11:50:28.942Z,95385.00
2018-07-01T11:52:57.913Z,95389.00
2018-07-01T11:55:26.957Z,95398.00
2018-07-01T11:57:55.930Z,95392.00
2018-07-01T12:00:25.001Z,95386.00
2018-07-01T12:02:53.983Z,95389.00
2018-07-01T12:05:23.123Z,95392.00
2018-07-01T12:07:52.071Z,95387.00
2018-07-01T12:10:21.102Z,95380.00
2018-07-01T12:12:50.070Z,95376.00
2018-07-01T12:15:19.077Z,95380.00
2018-07-01T12:17:48.162Z,95382.00
2018-07-01T12:20:17.207Z,95382.00
2018-07-01T12:22:46.206Z,95383.00
2018-07-01T12:25:15.823Z,95385.00
2018-07-01T12:27:44.914Z,95375.00
2018-07-01T12:30:13.926Z,95376.00
2018-07-01T12:32:42.906Z,95376.00
2018-07-01T12:35:12.239Z,95376.00
2018-07-01T12:37:41.613Z,95374.00
2018-07-01T12:40:10.618Z,95380.00
2018-07-01T12:42:39.596Z,95372.00
2018-07-01T12:45:08.601Z,95370.00
2018-07-01T12:47:37.634Z,95379.00
2018-07-01T12:50:06.702Z,95374.00
2018-07-01T12:52:35.781Z,95375.00
2018-07-01T12:55:04.910Z,95370.00
2018-07-01T12:57:33.910Z,95372.00
2018-07-01T13:00:03.034Z,95372.00
2018-07-01T13:02:32.176Z,95379.00
2018-07-01T13:05:01.179Z,95372.00
2018-07-01T13:07:30.258Z,95360.00
2018-07-01T13:09:59.273Z,95366.00
2018-07-01T13:12:28.289Z,95365.00
2018-07-01T13:14:57.306Z,95350.00
2018-07-01T13:17:26.301Z,95355.00
2018-07-01T13:19:55.310Z,95357.00
2018-07-01T13:22:24.309Z,95349.00
2018-07-01T13:24:53.357Z,95347.00
2018-07-01T13:27:22.370Z,95343.00
2018-07-01T13:29:51.378Z,95340.00
2018-07-01T13:32:20.683Z,95340.00
2018-07-01T13:34:49.696Z,95340.00
2018-07-01T13:37:19.713Z,95345.00
2018-07-01T13:39:49.222Z,95339.00
2018-07-01T13:42:18.286Z,95339.00
2018-07-01T13:44:47.598Z,95347.00
2018-07-01T13:47:16.608Z,95350.00
2018-07-01T13:49:45.634Z,95345.00
2018-07-01T13:52:14.706Z,95344.00
2018-07-01T13:54:43.714Z,95343.00
2018-07-01T13:57:12.808Z,95348.00
2018-07-01T13:59:41.822Z,95340.00
2018-07-01T14:02:10.835Z,95337.00
2018-07-01T14:04:39.866Z,95338.00
2018-07-01T14:07:08.881Z,95336.00
2018-07-01T14:09:37.804Z,95337.00
2018-07-01T14:12:06.830Z,95340.00
2018-07-01T14:14:35.765Z,95340.00
2018-07-01T14:17:04.892Z,95337.00
2018-07-01T14:19:34.123Z,95328.00
2018-07-01T14:22:03.230Z,95339.00
2018-07-01T14:24:32.198Z,95339.00
2018-07-01T14:27:01.344Z,95340.00
2018-07-01T14:29:30.223Z,95337.00
2018-07-01T14:31:59.246Z,95331.00
2018-07-01T14:34:28.230Z,95328.00
2018-07-01T14:36:57.294Z,95326.00
2018-07-01T14:39:26.293Z,95331.00
2018-07-01T14:41:55.298Z,95324.00
2018-07-01T14:44:24.322Z,95334.00
2018-07-01T14:46:53.109Z,95322.00
2018-07-01T14:49:22.266Z,95323.00
2018-07-01T14:51:51.358Z,95320.00
2018-07-01T14:54:20.467Z,95320.00
2018-07-01T14:56:49.575Z,95321.00
2018-07-01T14:59:18.690Z,95318.00
2018-07-01T15:01:47.801Z,95313.00
2018-07-01T15:04:16.778Z,95321.00
2018-07-01T15:06:45.789Z,95322.00
2018-07-01T15:09:14.749Z,95323.00
2018-07-01T15:11:43.744Z,95324.00
2018-07-01T15:14:12.738Z,95327.00
2018-07-01T15:16:41.763Z,95327.00
2018-07-01T15:19:10.748Z,95321.00
2018-07-01T15:21:39.754Z,95321.00
2018-07-01T15:24:08.730Z,95326.00
2018-07-01T15:26:37.730Z,95324.00
2018-07-01T15:29:06.956Z,95325.00
2018-07-01T15:31:35.938Z,95336.00
2018-07-01T15:34:04.954Z,95331.00
2018-07-01T15:36:33.964Z,95329.00
2018-07-01T15:39:03.290Z,95323.00
2018-07-01T15:41:32.294Z,95314.00
2018-07-01T15:44:01.402Z,95314.00
2018-07-01T15:46:30.402Z,95310.00
2018-07-01T15:48:59.410Z,95320.00
2018-07-01T15:51:28.414Z,95312.00
2018-07-01T15:53:57.398Z,95316.00
2018-07-01T15:56:26.428Z,95308.00
2018-07-01T15:58:55.846Z,95308.00
2018-07-01T16:01:25.106Z,95317.00
2018-07-01T16:03:54.554Z,95316.00
2018-07-01T16:06:24.586Z,95309.00
2018-07-01T16:08:53.637Z,95304.00
2018-07-01T16:11:22.618Z,95316.00
2018-07-01T16:13:51.606Z,95314.00
2018-07-01T16:16:20.662Z,95312.00
2018-07-01T16:18:49.637Z,95304.00
2018-07-01T16:21:18.666Z,95306.00
2018-07-01T16:23:47.633Z,95304.00
2018-07-01T16:26:21.824Z,95305.00
2018-07-01T16:28:56.011Z,95311.00
2018-07-01T16:31:25.013Z,95300.00
2018-07-01T16:33:54.002Z,95296.00
2018-07-01T16:36:23.039Z,95307.00
2018-07-01T16:38:52.050Z,95311.00
2018-07-01T16:41:21.095Z,95310.00
2018-07-01T16:43:50.094Z,95313.00
2018-07-01T16:46:19.096Z,95310.00
2018-07-01T16:48:48.097Z,95313.00
2018-07-01T16:51:17.110Z,95315.00
2018-07-01T16:53:46.109Z,95320.00
2018-07-01T16:56:15.097Z,95321.00
2018-07-01T16:58:44.093Z,95320.00
2018-07-01T17:01:13.130Z,95327.00
2018-07-01T17:03:42.234Z,95322.00
2018-07-01T17:06:11.228Z,95319.00
2018-07-01T17:08:40.221Z,95320.00
2018-07-01T17:11:09.226Z,95319.00
2018-07-01T17:13:38.333Z,95315.00
2018-07-01T17:16:07.417Z,95311.00
2018-07-01T17:18:36.585Z,95318.00
2018-07-01T17:21:05.970Z,95319.00
2018-07-01T17:23:34.950Z,95327.00
2018-07-01T17:26:04.002Z,95324.00
2018-07-01T17:28:33.142Z,95326.00
2018-07-01T17:31:07.319Z,95332.00
2018-07-01T17:33:36.602Z,95334.00
2018-07-01T17:36:05.974Z,95334.00
2018-07-01T17:38:35.035Z,95338.00
2018-07-01T17:41:04.075Z,95331.00
2018-07-01T17:43:33.114Z,95330.00
2018-07-01T17:46:02.144Z,95336.00
2018-07-01T17:48:31.251Z,95329.00
2018-07-01T17:51:00.270Z,95332.00
2018-07-01T17:53:46.316Z,95326.00
2018-07-01T17:56:15.301Z,95331.00
2018-07-01T17:58:44.291Z,95330.00
2018-07-01T18:01:13.399Z,95325.00
2018-07-01T18:03:42.420Z,95326.00
2018-07-01T18:06:11.434Z,95337.00
2018-07-01T18:08:40.450Z,95331.00
2018-07-01T18:11:09.439Z,95331.00
2018-07-01T18:13:38.525Z,95338.00
2018-07-01T18:16:08.462Z,95340.00
2018-07-01T18:18:38.068Z,95332.00
2018-07-01T18:21:07.071Z,95337.00
2018-07-01T18:24:02.952Z,95338.00
2018-07-01T18:26:05.155Z,95335.00
2018-07-01T18:28:45.187Z,95329.00
2018-07-01T18:31:03.308Z,95330.00
2018-07-01T18:33:32.426Z,95342.00
2018-07-01T18:36:02.422Z,95344.00
2018-07-01T18:38:31.409Z,95343.00
2018-07-01T18:41:00.390Z,95341.00
2018-07-01T18:43:29.485Z,95340.00
2018-07-01T18:45:58.600Z,95346.00
2018-07-01T18:48:27.676Z,95344.00
2018-07-01T18:50:56.660Z,95339.00
2018-07-01T18:53:25.675Z,95338.00
2018-07-01T18:55:54.786Z,95346.00
2018-07-01T18:58:23.902Z,95341.00
2018-07-01T19:00:52.909Z,95346.00
2018-07-01T19:03:21.918Z,95340.00
2018-07-01T19:05:51.709Z,95343.00
2018-07-01T19:08:20.694Z,95354.00
2018-07-01T19:10:49.730Z,95348.00
2018-07-01T19:13:18.748Z,95348.00
2018-07-01T19:15:47.730Z,95354.00
2018-07-01T19:18:16.740Z,95351.00
2018-07-01T19:20:45.810Z,95357.00
2018-07-01T19:23:14.830Z,95357.00
2018-07-01T19:25:43.838Z,95356.00
2018-07-01T19:28:12.850Z,95354.00
2018-07-01T19:30:41.944Z,95351.00
2018-07-01T19:33:11.285Z,95360.00
2018-07-01T19:35:40.247Z,95366.00
2018-07-01T19:38:09.273Z,95363.00
2018-07-01T19:40:38.258Z,95369.00
2018-07-01T19:43:07.387Z,95371.00
2018-07-01T19:45:36.255Z,95365.00
2018-07-01T19:48:05.311Z,95365.00
2018-07-01T19:50:34.298Z,95369.00
2018-07-01T19:53:03.374Z,95368.00
2018-07-01T19:55:32.381Z,95368.00
2018-07-01T19:58:01.363Z,95369.00
2018-07-01T20:00:30.510Z,95372.00
2018-07-01T20:03:00.179Z,95378.00
2018-07-01T20:05:29.174Z,95363.00
2018-07-01T20:07:58.159Z,95368.00
2018-07-01T20:10:27.171Z,95368.00
2018-07-01T20:12:56.151Z,95366.00
2018-07-01T20:15:25.150Z,95366.00
2018-07-01T20:17:54.165Z,95372.00
2018-07-01T20:20:23.149Z,95368.00
2018-07-01T20:22:52.173Z,95369.00
2018-07-01T20:25:21.149Z,95369.00
2018-07-01T20:27:50.156Z,95368.00
2018-07-01T20:30:19.142Z,95361.00
2018-07-01T20:32:48.122Z,95367.00
2018-07-01T20:35:17.278Z,95362.00
2018-07-01T20:37:46.399Z,95364.00
2018-07-01T20:40:15.434Z,95358.00
2018-07-01T20:42:44.418Z,95366.00
2018-07-01T20:45:13.532Z,95362.00
2018-07-01T20:47:42.534Z,95365.00
2018-07-01T20:50:11.524Z,95361.00
2018-07-01T20:52:40.529Z,95361.00
2018-07-01T20:55:09.245Z,95368.00
2018-07-01T20:57:38.229Z,95356.00
2018-07-01T21:00:07.306Z,95365.00
2018-07-01T21:02:36.400Z,95367.00
2018-07-01T21:05:05.484Z,95362.00
2018-07-01T21:07:34.442Z,95359.00
2018-07-01T21:10:03.462Z,95358.00
2018-07-01T21:12:32.573Z,95358.00
2018-07-01T21:15:01.523Z,95366.00
2018-07-01T21:17:30.541Z,95359.00
2018-07-01T21:19:59.534Z,95359.00
2018-07-01T21:22:28.535Z,95363.00
2018-07-01T21:24:57.559Z,95356.00
2018-07-01T21:27:26.546Z,95356.00
2018-07-01T21:29:55.525Z,95350.00
2018-07-01T21:32:24.550Z,95348.00
2018-07-01T21:34:53.612Z,95352.00
2018-07-01T21:37:22.653Z,95350.00
2018-07-01T21:39:51.673Z,95340.00
2018-07-01T21:42:20.701Z,95344.00
2018-07-01T21:44:49.690Z,95358.00
2018-07-01T21:47:18.686Z,95344.00
2018-07-01T21:49:47.716Z,95347.00
2018-07-01T21:52:16.717Z,95346.00
2018-07-01T21:54:45.734Z,95342.00
2018-07-01T21:57:14.731Z,95334.00
2018-07-01T21:59:43.839Z,95333.00
2018-07-01T22:02:12.890Z,95335.00
2018-07-01T22:04:41.980Z,95333.00
2018-07-01T22:07:10.979Z,95344.00
2018-07-01T22:09:40.011Z,95335.00
2018-07-01T22:12:25.965Z,95334.00
2018-07-01T22:15:27.191Z,95338.00
2018-07-01T22:17:57.228Z,95338.00
2018-07-01T22:20:26.378Z,95337.00
2018-07-01T22:22:55.399Z,95346.00
2018-07-01T22:25:24.389Z,95348.00
2018-07-01T22:27:53.441Z,95344.00
2018-07-01T22:30:22.409Z,95351.00
2018-07-01T22:32:51.441Z,95342.00
2018-07-01T22:35:20.455Z,95346.00
2018-07-01T22:37:49.509Z,95343.00
2018-07-01T22:40:18.488Z,95347.00
2018-07-01T22:42:47.489Z,95343.00
2018-07-01T22:45:16.486Z,95346.00
2018-07-01T22:47:45.481Z,95343.00
2018-07-01T22:50:14.464Z,95343.00
2018-07-01T22:52:43.458Z,95341.00
2018-07-01T22:55:12.541Z,95345.00
2018-07-01T22:57:41.525Z,95341.00
2018-07-01T23:00:10.518Z,95346.00
2018-07-01T23:02:59.513Z,95342.00
2018-07-01T23:05:28.514Z,95346.00
2018-07-01T23:07:57.507Z,95337.00
2018-07-01T23:10:27.322Z,95340.00
2018-07-01T23:12:56.965Z,95334.00
2018-07-01T23:15:25.961Z,95342.00
2018-07-01T23:17:54.958Z,95345.00
2018-07-01T23:20:24.070Z,95345.00
2018-07-01T23:22:53.062Z,95337.00
2018-07-01T23:25:22.101Z,95341.00
2018-07-01T23:27:51.096Z,95339.00
2018-07-01T23:30:20.075Z,95335.00
2018-07-01T23:32:49.067Z,95344.00
2018-07-01T23:35:18.073Z,95339.00
2018-07-01T23:37:47.107Z,95342.00
2018-07-01T23:40:16.102Z,95338.00
2018-07-01T23:42:45.148Z,95340.00
2018-07-01T23:45:15.249Z,95337.00
2018-07-01T23:47:44.429Z,95328.00
2018-07-01T23:50:13.429Z,95325.00
2018-07-01T23:52:42.418Z,95328.00
2018-07-01T23:55:11.413Z,95338.00
2018-07-01T23:57:40.507Z,95332.00
